Current Weather

Gary/Chicago Intl

Gary, Indiana (KGYY)

Report from: Friday, August 19, 2022 12:20 AM CDT
Current time: Friday, August 19, 2022 12:53 AM CDT

Nearby weather
Weather history
Weather forecast

Temperature20.0°C (68.0°F)
Dew point15.5°C (59.9°F)
Winds 3 kts (1.5 m/s, 3.5 mph) South (170°)
Visibility10 mi. (16.1 km)
Clouds Sky clear
Altimeter29.97 in.Hg (1015 mB)
Relative humidity75 %
Density altitude772 ft. (235 m)
Remarks Fully automated report
Automated weather observing station with precipitation discriminator
Present weather sensor not operating
Flight conditions Visual Meteorological Conditions
Raw dataKGYY 190520Z AUTO 17003KT 10SM CLR 20/16 A2997 RMK AO2 T02000155 PWINO
An unhandled exception has occurred. See browser dev tools for details. Reload 🗙